sensor_id;sensor_type;location;lat;lon;timestamp;P1;durP1;ratioP1;P2;durP2;ratioP2
3207;SDS011;1616;52.394;9.756;2023-03-01T00:00:46;26.57;;;14.03;;
3207;SDS011;1616;52.394;9.756;2023-03-01T00:03:12;27.60;;;13.37;;
3207;SDS011;1616;52.394;9.756;2023-03-01T00:05:43;18.13;;;12.50;;
3207;SDS011;1616;52.394;9.756;2023-03-01T00:08:12;25.77;;;12.47;;
3207;SDS011;1616;52.394;9.756;2023-03-01T00:10:39;25.30;;;14.03;;
3207;SDS011;1616;52.394;9.756;2023-03-01T00:13:04;25.93;;;14.60;;
3207;SDS011;1616;52.394;9.756;2023-03-01T00:15:33;24.80;;;13.73;;
3207;SDS011;1616;52.394;9.756;2023-03-01T00:18:02;24.73;;;14.90;;
3207;SDS011;1616;52.394;9.756;2023-03-01T00:20:28;25.57;;;14.50;;
3207;SDS011;1616;52.394;9.756;2023-03-01T00:22:53;26.03;;;14.43;;
3207;SDS011;1616;52.394;9.756;2023-03-01T00:25:20;28.07;;;13.90;;
3207;SDS011;1616;52.394;9.756;2023-03-01T00:27:46;31.93;;;15.00;;
3207;SDS011;1616;52.394;9.756;2023-03-01T00:30:12;26.50;;;14.23;;
3207;SDS011;1616;52.394;9.756;2023-03-01T00:32:38;23.73;;;13.40;;
3207;SDS011;1616;52.394;9.756;2023-03-01T00:35:04;18.73;;;13.37;;
3207;SDS011;1616;52.394;9.756;2023-03-01T00:37:30;21.43;;;13.50;;
3207;SDS011;1616;52.394;9.756;2023-03-01T00:39:56;24.67;;;13.77;;
3207;SDS011;1616;52.394;9.756;2023-03-01T00:42:21;20.70;;;14.00;;
3207;SDS011;1616;52.394;9.756;2023-03-01T00:44:47;21.67;;;13.63;;
3207;SDS011;1616;52.394;9.756;2023-03-01T00:47:13;20.60;;;13.10;;
3207;SDS011;1616;52.394;9.756;2023-03-01T00:49:39;22.07;;;12.10;;
3207;SDS011;1616;52.394;9.756;2023-03-01T00:52:05;18.33;;;12.23;;
3207;SDS011;1616;52.394;9.756;2023-03-01T00:54:31;25.90;;;12.80;;
3207;SDS011;1616;52.394;9.756;2023-03-01T00:56:56;16.60;;;10.93;;
3207;SDS011;1616;52.394;9.756;2023-03-01T00:59:22;21.43;;;12.00;;
3207;SDS011;1616;52.394;9.756;2023-03-01T01:01:48;17.37;;;11.07;;
3207;SDS011;1616;52.394;9.756;2023-03-01T01:04:14;25.97;;;11.90;;
3207;SDS011;1616;52.394;9.756;2023-03-01T01:06:41;14.73;;;10.70;;
3207;SDS011;1616;52.394;9.756;2023-03-01T01:09:10;15.90;;;10.60;;
3207;SDS011;1616;52.394;9.756;2023-03-01T01:11:44;18.47;;;10.23;;
3207;SDS011;1616;52.394;9.756;2023-03-01T01:14:14;26.23;;;11.17;;
3207;SDS011;1616;52.394;9.756;2023-03-01T01:16:40;17.93;;;10.00;;
3207;SDS011;1616;52.394;9.756;2023-03-01T01:19:06;13.90;;;10.40;;
3207;SDS011;1616;52.394;9.756;2023-03-01T01:21:32;14.93;;;10.27;;
3207;SDS011;1616;52.394;9.756;2023-03-01T01:23:58;16.30;;;10.67;;
3207;SDS011;1616;52.394;9.756;2023-03-01T01:26:25;16.13;;;10.80;;
3207;SDS011;1616;52.394;9.756;2023-03-01T01:28:54;19.90;;;11.40;;
3207;SDS011;1616;52.394;9.756;2023-03-01T01:31:22;18.50;;;10.50;;
3207;SDS011;1616;52.394;9.756;2023-03-01T01:33:49;17.93;;;12.07;;
3207;SDS011;1616;52.394;9.756;2023-03-01T01:36:15;22.10;;;13.13;;
3207;SDS011;1616;52.394;9.756;2023-03-01T01:38:41;19.07;;;11.17;;
3207;SDS011;1616;52.394;9.756;2023-03-01T01:41:08;17.97;;;11.73;;
3207;SDS011;1616;52.394;9.756;2023-03-01T01:43:46;21.30;;;12.40;;
3207;SDS011;1616;52.394;9.756;2023-03-01T01:46:32;23.73;;;12.17;;
3207;SDS011;1616;52.394;9.756;2023-03-01T01:49:05;23.50;;;12.90;;
3207;SDS011;1616;52.394;9.756;2023-03-01T01:51:44;22.90;;;13.80;;
3207;SDS011;1616;52.394;9.756;2023-03-01T01:54:17;20.47;;;12.80;;
3207;SDS011;1616;52.394;9.756;2023-03-01T01:56:51;26.73;;;13.53;;
3207;SDS011;1616;52.394;9.756;2023-03-01T01:59:22;23.27;;;13.57;;
3207;SDS011;1616;52.394;9.756;2023-03-01T02:01:50;20.17;;;12.23;;
3207;SDS011;1616;52.394;9.756;2023-03-01T02:04:17;19.70;;;12.93;;
3207;SDS011;1616;52.394;9.756;2023-03-01T02:06:55;22.43;;;11.80;;
3207;SDS011;1616;52.394;9.756;2023-03-01T02:09:34;23.03;;;11.90;;
3207;SDS011;1616;52.394;9.756;2023-03-01T02:12:01;17.50;;;11.53;;
3207;SDS011;1616;52.394;9.756;2023-03-01T02:14:27;20.43;;;10.57;;
3207;SDS011;1616;52.394;9.756;2023-03-01T02:16:53;15.60;;;10.40;;
3207;SDS011;1616;52.394;9.756;2023-03-01T02:19:27;20.00;;;11.00;;
3207;SDS011;1616;52.394;9.756;2023-03-01T02:22:25;13.97;;;9.83;;
3207;SDS011;1616;52.394;9.756;2023-03-01T02:25:05;15.00;;;9.80;;
3207;SDS011;1616;52.394;9.756;2023-03-01T02:30:22;13.93;;;10.00;;
3207;SDS011;1616;52.394;9.756;2023-03-01T02:32:49;12.33;;;9.40;;
3207;SDS011;1616;52.394;9.756;2023-03-01T02:35:19;22.40;;;12.07;;
3207;SDS011;1616;52.394;9.756;2023-03-01T02:37:45;25.30;;;11.97;;
3207;SDS011;1616;52.394;9.756;2023-03-01T02:40:14;24.87;;;12.80;;
3207;SDS011;1616;52.394;9.756;2023-03-01T02:42:56;20.83;;;12.57;;
3207;SDS011;1616;52.394;9.756;2023-03-01T02:45:23;21.43;;;11.20;;
3207;SDS011;1616;52.394;9.756;2023-03-01T02:47:50;30.37;;;12.90;;
3207;SDS011;1616;52.394;9.756;2023-03-01T02:50:37;19.30;;;12.43;;
3207;SDS011;1616;52.394;9.756;2023-03-01T02:53:21;19.97;;;12.40;;
3207;SDS011;1616;52.394;9.756;2023-03-01T02:55:53;20.97;;;14.20;;
3207;SDS011;1616;52.394;9.756;2023-03-01T02:58:19;19.30;;;12.60;;
3207;SDS011;1616;52.394;9.756;2023-03-01T03:00:45;24.13;;;11.40;;
3207;SDS011;1616;52.394;9.756;2023-03-01T03:03:15;19.23;;;11.50;;
3207;SDS011;1616;52.394;9.756;2023-03-01T03:05:44;22.17;;;13.60;;
3207;SDS011;1616;52.394;9.756;2023-03-01T03:08:10;22.00;;;12.20;;
3207;SDS011;1616;52.394;9.756;2023-03-01T03:10:37;23.23;;;11.83;;
3207;SDS011;1616;52.394;9.756;2023-03-01T03:13:08;23.40;;;12.50;;
3207;SDS011;1616;52.394;9.756;2023-03-01T03:15:37;22.83;;;12.80;;
3207;SDS011;1616;52.394;9.756;2023-03-01T03:18:05;18.07;;;12.27;;
3207;SDS011;1616;52.394;9.756;2023-03-01T03:20:33;16.90;;;12.70;;
3207;SDS011;1616;52.394;9.756;2023-03-01T03:22:59;26.77;;;12.00;;
3207;SDS011;1616;52.394;9.756;2023-03-01T03:25:25;23.60;;;11.80;;
3207;SDS011;1616;52.394;9.756;2023-03-01T03:27:54;15.20;;;11.40;;
3207;SDS011;1616;52.394;9.756;2023-03-01T03:30:23;17.50;;;12.20;;
3207;SDS011;1616;52.394;9.756;2023-03-01T03:32:50;18.70;;;10.90;;
3207;SDS011;1616;52.394;9.756;2023-03-01T03:35:25;16.10;;;10.67;;
3207;SDS011;1616;52.394;9.756;2023-03-01T03:37:55;24.57;;;13.40;;
3207;SDS011;1616;52.394;9.756;2023-03-01T03:40:28;23.90;;;12.47;;
3207;SDS011;1616;52.394;9.756;2023-03-01T03:42:56;21.00;;;12.63;;
3207;SDS011;1616;52.394;9.756;2023-03-01T03:45:22;18.90;;;11.87;;
3207;SDS011;1616;52.394;9.756;2023-03-01T03:47:48;24.57;;;11.80;;
3207;SDS011;1616;52.394;9.756;2023-03-01T03:50:14;16.17;;;10.93;;
3207;SDS011;1616;52.394;9.756;2023-03-01T03:52:41;17.90;;;11.10;;
3207;SDS011;1616;52.394;9.756;2023-03-01T03:55:08;16.80;;;11.23;;
3207;SDS011;1616;52.394;9.756;2023-03-01T03:57:37;15.73;;;10.30;;
3207;SDS011;1616;52.394;9.756;2023-03-01T04:00:04;20.67;;;10.50;;
3207;SDS011;1616;52.394;9.756;2023-03-01T04:02:41;12.60;;;9.50;;
3207;SDS011;1616;52.394;9.756;2023-03-01T04:05:07;18.47;;;10.57;;
3207;SDS011;1616;52.394;9.756;2023-03-01T04:07:34;20.30;;;11.20;;
3207;SDS011;1616;52.394;9.756;2023-03-01T04:10:02;15.10;;;9.47;;
3207;SDS011;1616;52.394;9.756;2023-03-01T04:12:29;15.27;;;10.03;;
3207;SDS011;1616;52.394;9.756;2023-03-01T04:14:54;16.43;;;11.10;;
3207;SDS011;1616;52.394;9.756;2023-03-01T04:17:20;19.20;;;10.40;;
3207;SDS011;1616;52.394;9.756;2023-03-01T04:19:45;19.73;;;11.70;;
3207;SDS011;1616;52.394;9.756;2023-03-01T04:22:14;18.67;;;10.50;;
3207;SDS011;1616;52.394;9.756;2023-03-01T04:24:43;22.50;;;12.97;;
3207;SDS011;1616;52.394;9.756;2023-03-01T04:27:10;22.50;;;11.93;;
3207;SDS011;1616;52.394;9.756;2023-03-01T04:29:36;20.87;;;11.80;;
3207;SDS011;1616;52.394;9.756;2023-03-01T04:32:02;18.90;;;12.47;;
3207;SDS011;1616;52.394;9.756;2023-03-01T04:34:28;20.87;;;12.00;;
3207;SDS011;1616;52.394;9.756;2023-03-01T04:36:55;37.43;;;14.23;;
3207;SDS011;1616;52.394;9.756;2023-03-01T04:39:20;16.77;;;11.53;;
3207;SDS011;1616;52.394;9.756;2023-03-01T04:41:46;20.57;;;12.97;;
3207;SDS011;1616;52.394;9.756;2023-03-01T04:44:12;20.40;;;11.80;;
3207;SDS011;1616;52.394;9.756;2023-03-01T04:46:38;13.70;;;10.70;;
3207;SDS011;1616;52.394;9.756;2023-03-01T04:49:05;16.33;;;11.07;;
3207;SDS011;1616;52.394;9.756;2023-03-01T04:51:31;16.67;;;10.90;;
3207;SDS011;1616;52.394;9.756;2023-03-01T04:53:59;15.67;;;9.73;;
3207;SDS011;1616;52.394;9.756;2023-03-01T04:56:25;16.07;;;11.20;;
3207;SDS011;1616;52.394;9.756;2023-03-01T04:58:52;12.50;;;10.17;;
3207;SDS011;1616;52.394;9.756;2023-03-01T05:01:19;16.90;;;10.33;;
3207;SDS011;1616;52.394;9.756;2023-03-01T05:03:46;15.37;;;10.40;;
3207;SDS011;1616;52.394;9.756;2023-03-01T05:06:14;18.57;;;11.53;;
3207;SDS011;1616;52.394;9.756;2023-03-01T05:08:41;18.77;;;12.13;;
3207;SDS011;1616;52.394;9.756;2023-03-01T05:11:07;17.37;;;11.20;;
3207;SDS011;1616;52.394;9.756;2023-03-01T05:13:34;16.17;;;10.40;;
3207;SDS011;1616;52.394;9.756;2023-03-01T05:16:01;11.93;;;9.30;;
3207;SDS011;1616;52.394;9.756;2023-03-01T05:18:29;13.53;;;10.60;;
3207;SDS011;1616;52.394;9.756;2023-03-01T05:21:00;18.53;;;10.67;;
3207;SDS011;1616;52.394;9.756;2023-03-01T05:23:36;18.47;;;11.13;;
3207;SDS011;1616;52.394;9.756;2023-03-01T05:26:03;16.13;;;11.10;;
3207;SDS011;1616;52.394;9.756;2023-03-01T05:28:29;20.10;;;10.13;;
3207;SDS011;1616;52.394;9.756;2023-03-01T05:30:55;17.57;;;10.77;;
3207;SDS011;1616;52.394;9.756;2023-03-01T05:33:22;18.93;;;10.67;;
3207;SDS011;1616;52.394;9.756;2023-03-01T05:35:49;20.23;;;10.40;;
3207;SDS011;1616;52.394;9.756;2023-03-01T05:38:15;15.20;;;10.70;;
3207;SDS011;1616;52.394;9.756;2023-03-01T05:40:42;26.83;;;10.57;;
3207;SDS011;1616;52.394;9.756;2023-03-01T05:43:09;19.00;;;11.07;;
3207;SDS011;1616;52.394;9.756;2023-03-01T05:45:36;19.47;;;11.57;;
3207;SDS011;1616;52.394;9.756;2023-03-01T05:48:05;17.40;;;9.97;;
3207;SDS011;1616;52.394;9.756;2023-03-01T05:50:35;25.30;;;11.37;;
3207;SDS011;1616;52.394;9.756;2023-03-01T05:53:13;20.73;;;10.90;;
3207;SDS011;1616;52.394;9.756;2023-03-01T05:55:40;15.70;;;11.37;;
3207;SDS011;1616;52.394;9.756;2023-03-01T05:58:07;13.30;;;9.90;;
3207;SDS011;1616;52.394;9.756;2023-03-01T06:00:41;13.53;;;10.27;;
3207;SDS011;1616;52.394;9.756;2023-03-01T06:03:09;15.73;;;10.33;;
3207;SDS011;1616;52.394;9.756;2023-03-01T06:05:36;21.13;;;10.70;;
3207;SDS011;1616;52.394;9.756;2023-03-01T06:08:02;14.50;;;11.10;;
3207;SDS011;1616;52.394;9.756;2023-03-01T06:10:28;20.73;;;12.33;;
3207;SDS011;1616;52.394;9.756;2023-03-01T06:12:54;25.57;;;11.97;;
3207;SDS011;1616;52.394;9.756;2023-03-01T06:15:20;23.63;;;11.70;;
3207;SDS011;1616;52.394;9.756;2023-03-01T06:17:47;18.33;;;10.77;;
3207;SDS011;1616;52.394;9.756;2023-03-01T06:20:14;21.37;;;12.37;;
3207;SDS011;1616;52.394;9.756;2023-03-01T06:22:45;15.43;;;10.90;;
3207;SDS011;1616;52.394;9.756;2023-03-01T06:25:12;19.17;;;12.67;;
3207;SDS011;1616;52.394;9.756;2023-03-01T06:27:40;19.07;;;11.03;;
3207;SDS011;1616;52.394;9.756;2023-03-01T06:30:06;18.23;;;11.23;;
3207;SDS011;1616;52.394;9.756;2023-03-01T06:32:34;28.37;;;11.67;;
3207;SDS011;1616;52.394;9.756;2023-03-01T06:35:00;16.53;;;11.13;;
3207;SDS011;1616;52.394;9.756;2023-03-01T06:37:25;17.77;;;11.60;;
3207;SDS011;1616;52.394;9.756;2023-03-01T06:39:51;18.37;;;10.63;;
3207;SDS011;1616;52.394;9.756;2023-03-01T06:42:17;18.20;;;11.57;;
3207;SDS011;1616;52.394;9.756;2023-03-01T06:44:43;17.93;;;11.40;;
3207;SDS011;1616;52.394;9.756;2023-03-01T06:47:09;18.93;;;12.37;;
3207;SDS011;1616;52.394;9.756;2023-03-01T06:49:35;21.20;;;10.73;;
3207;SDS011;1616;52.394;9.756;2023-03-01T06:52:00;19.47;;;11.40;;
3207;SDS011;1616;52.394;9.756;2023-03-01T06:54:26;16.47;;;11.30;;
3207;SDS011;1616;52.394;9.756;2023-03-01T06:56:52;17.63;;;11.43;;
3207;SDS011;1616;52.394;9.756;2023-03-01T06:59:17;17.37;;;10.60;;
3207;SDS011;1616;52.394;9.756;2023-03-01T07:01:43;17.10;;;11.40;;
3207;SDS011;1616;52.394;9.756;2023-03-01T07:04:10;13.00;;;10.47;;
3207;SDS011;1616;52.394;9.756;2023-03-01T07:06:36;14.43;;;10.80;;
3207;SDS011;1616;52.394;9.756;2023-03-01T07:09:02;11.57;;;10.23;;
3207;SDS011;1616;52.394;9.756;2023-03-01T07:11:28;14.03;;;10.53;;
3207;SDS011;1616;52.394;9.756;2023-03-01T07:13:53;12.73;;;11.27;;
3207;SDS011;1616;52.394;9.756;2023-03-01T07:16:20;12.87;;;10.73;;
3207;SDS011;1616;52.394;9.756;2023-03-01T07:18:46;11.60;;;10.47;;
3207;SDS011;1616;52.394;9.756;2023-03-01T07:21:12;11.43;;;10.10;;
3207;SDS011;1616;52.394;9.756;2023-03-01T07:23:39;15.37;;;10.70;;
3207;SDS011;1616;52.394;9.756;2023-03-01T07:26:05;10.73;;;9.67;;
3207;SDS011;1616;52.394;9.756;2023-03-01T07:28:31;11.40;;;9.30;;
3207;SDS011;1616;52.394;9.756;2023-03-01T07:31:02;12.30;;;10.07;;
3207;SDS011;1616;52.394;9.756;2023-03-01T07:33:28;15.57;;;10.53;;
3207;SDS011;1616;52.394;9.756;2023-03-01T07:36:00;11.07;;;10.20;;
3207;SDS011;1616;52.394;9.756;2023-03-01T07:38:27;12.63;;;10.33;;
3207;SDS011;1616;52.394;9.756;2023-03-01T07:40:57;11.23;;;10.23;;
3207;SDS011;1616;52.394;9.756;2023-03-01T07:43:23;10.73;;;9.63;;
3207;SDS011;1616;52.394;9.756;2023-03-01T07:45:49;11.43;;;9.37;;
3207;SDS011;1616;52.394;9.756;2023-03-01T07:48:15;10.30;;;8.47;;
3207;SDS011;1616;52.394;9.756;2023-03-01T07:50:40;10.43;;;8.00;;
3207;SDS011;1616;52.394;9.756;2023-03-01T07:53:06;9.57;;;8.70;;
3207;SDS011;1616;52.394;9.756;2023-03-01T07:55:33;10.03;;;9.33;;
3207;SDS011;1616;52.394;9.756;2023-03-01T07:57:59;9.80;;;8.80;;
3207;SDS011;1616;52.394;9.756;2023-03-01T08:00:25;8.90;;;8.10;;
3207;SDS011;1616;52.394;9.756;2023-03-01T08:02:51;10.03;;;9.17;;
3207;SDS011;1616;52.394;9.756;2023-03-01T08:05:17;9.07;;;8.27;;
3207;SDS011;1616;52.394;9.756;2023-03-01T08:07:42;10.40;;;9.70;;
3207;SDS011;1616;52.394;9.756;2023-03-01T08:10:08;14.70;;;10.27;;
3207;SDS011;1616;52.394;9.756;2023-03-01T08:12:37;11.97;;;9.90;;
3207;SDS011;1616;52.394;9.756;2023-03-01T08:15:02;10.43;;;9.40;;
3207;SDS011;1616;52.394;9.756;2023-03-01T08:17:28;13.20;;;10.90;;
3207;SDS011;1616;52.394;9.756;2023-03-01T08:19:54;11.80;;;10.50;;
3207;SDS011;1616;52.394;9.756;2023-03-01T08:22:19;13.73;;;11.37;;
3207;SDS011;1616;52.394;9.756;2023-03-01T08:24:46;13.50;;;9.80;;
3207;SDS011;1616;52.394;9.756;2023-03-01T08:27:11;12.50;;;8.90;;
3207;SDS011;1616;52.394;9.756;2023-03-01T08:29:38;9.07;;;8.27;;
3207;SDS011;1616;52.394;9.756;2023-03-01T08:32:04;9.20;;;7.80;;
3207;SDS011;1616;52.394;9.756;2023-03-01T08:34:29;9.10;;;8.27;;
3207;SDS011;1616;52.394;9.756;2023-03-01T08:36:56;8.77;;;8.00;;
3207;SDS011;1616;52.394;9.756;2023-03-01T08:39:22;8.17;;;7.20;;
3207;SDS011;1616;52.394;9.756;2023-03-01T08:41:48;7.20;;;6.70;;
3207;SDS011;1616;52.394;9.756;2023-03-01T08:44:14;8.90;;;6.80;;
3207;SDS011;1616;52.394;9.756;2023-03-01T08:46:42;8.03;;;7.47;;
3207;SDS011;1616;52.394;9.756;2023-03-01T08:49:13;8.23;;;7.53;;
3207;SDS011;1616;52.394;9.756;2023-03-01T08:51:40;8.00;;;7.40;;
3207;SDS011;1616;52.394;9.756;2023-03-01T08:54:07;7.37;;;6.80;;
3207;SDS011;1616;52.394;9.756;2023-03-01T08:56:35;7.70;;;6.97;;
3207;SDS011;1616;52.394;9.756;2023-03-01T08:59:01;6.40;;;6.00;;
3207;SDS011;1616;52.394;9.756;2023-03-01T09:01:27;7.67;;;5.40;;
3207;SDS011;1616;52.394;9.756;2023-03-01T09:03:53;5.70;;;5.20;;
3207;SDS011;1616;52.394;9.756;2023-03-01T09:06:18;5.70;;;5.40;;
3207;SDS011;1616;52.394;9.756;2023-03-01T09:08:46;6.53;;;6.10;;
3207;SDS011;1616;52.394;9.756;2023-03-01T09:11:13;5.80;;;5.50;;
3207;SDS011;1616;52.394;9.756;2023-03-01T09:13:41;6.63;;;6.23;;
3207;SDS011;1616;52.394;9.756;2023-03-01T09:16:08;5.93;;;5.33;;
3207;SDS011;1616;52.394;9.756;2023-03-01T09:18:34;5.50;;;5.10;;
3207;SDS011;1616;52.394;9.756;2023-03-01T09:21:04;5.67;;;5.17;;
3207;SDS011;1616;52.394;9.756;2023-03-01T09:23:38;4.40;;;4.20;;
3207;SDS011;1616;52.394;9.756;2023-03-01T09:26:06;5.10;;;4.80;;
3207;SDS011;1616;52.394;9.756;2023-03-01T09:28:44;6.30;;;5.67;;
3207;SDS011;1616;52.394;9.756;2023-03-01T09:31:11;7.83;;;4.73;;
3207;SDS011;1616;52.394;9.756;2023-03-01T09:33:38;4.13;;;3.83;;
3207;SDS011;1616;52.394;9.756;2023-03-01T09:36:09;4.43;;;4.13;;
3207;SDS011;1616;52.394;9.756;2023-03-01T09:38:43;4.40;;;4.10;;
3207;SDS011;1616;52.394;9.756;2023-03-01T09:41:35;5.13;;;4.73;;
3207;SDS011;1616;52.394;9.756;2023-03-01T09:46:42;4.30;;;4.10;;
3207;SDS011;1616;52.394;9.756;2023-03-01T09:49:17;4.70;;;4.40;;
3207;SDS011;1616;52.394;9.756;2023-03-01T09:52:12;4.53;;;4.23;;
3207;SDS011;1616;52.394;9.756;2023-03-01T09:54:39;4.50;;;4.20;;
3207;SDS011;1616;52.394;9.756;2023-03-01T10:04:52;3.90;;;3.60;;
3207;SDS011;1616;52.394;9.756;2023-03-01T10:07:27;4.70;;;4.47;;
3207;SDS011;1616;52.394;9.756;2023-03-01T10:10:10;5.10;;;3.80;;
3207;SDS011;1616;52.394;9.756;2023-03-01T10:12:52;5.17;;;3.47;;
3207;SDS011;1616;52.394;9.756;2023-03-01T10:15:20;4.17;;;3.83;;
3207;SDS011;1616;52.394;9.756;2023-03-01T10:20:26;5.03;;;3.90;;
3207;SDS011;1616;52.394;9.756;2023-03-01T10:22:59;3.30;;;3.10;;
3207;SDS011;1616;52.394;9.756;2023-03-01T10:25:32;3.83;;;3.63;;
3207;SDS011;1616;52.394;9.756;2023-03-01T10:31:00;4.57;;;4.13;;
3207;SDS011;1616;52.394;9.756;2023-03-01T10:33:32;5.60;;;4.13;;
3207;SDS011;1616;52.394;9.756;2023-03-01T10:36:02;4.20;;;3.87;;
3207;SDS011;1616;52.394;9.756;2023-03-01T10:38:30;4.00;;;3.70;;
3207;SDS011;1616;52.394;9.756;2023-03-01T10:41:11;5.13;;;4.93;;
3207;SDS011;1616;52.394;9.756;2023-03-01T10:43:45;3.60;;;3.40;;
3207;SDS011;1616;52.394;9.756;2023-03-01T10:46:29;4.17;;;3.53;;
3207;SDS011;1616;52.394;9.756;2023-03-01T10:51:45;3.63;;;3.43;;
3207;SDS011;1616;52.394;9.756;2023-03-01T10:54:19;4.30;;;3.90;;
3207;SDS011;1616;52.394;9.756;2023-03-01T10:56:56;3.33;;;3.13;;
3207;SDS011;1616;52.394;9.756;2023-03-01T10:59:27;3.63;;;3.40;;
3207;SDS011;1616;52.394;9.756;2023-03-01T11:05:15;3.00;;;2.80;;
3207;SDS011;1616;52.394;9.756;2023-03-01T11:10:35;3.03;;;2.83;;
3207;SDS011;1616;52.394;9.756;2023-03-01T11:13:14;3.37;;;3.17;;
3207;SDS011;1616;52.394;9.756;2023-03-01T11:15:42;3.60;;;3.40;;
3207;SDS011;1616;52.394;9.756;2023-03-01T11:18:22;3.10;;;2.90;;
3207;SDS011;1616;52.394;9.756;2023-03-01T11:20:48;3.43;;;3.20;;
3207;SDS011;1616;52.394;9.756;2023-03-01T11:23:16;4.23;;;2.77;;
3207;SDS011;1616;52.394;9.756;2023-03-01T11:25:47;2.60;;;2.40;;
3207;SDS011;1616;52.394;9.756;2023-03-01T11:28:32;2.80;;;2.60;;
3207;SDS011;1616;52.394;9.756;2023-03-01T11:36:03;2.13;;;2.03;;
3207;SDS011;1616;52.394;9.756;2023-03-01T11:38:35;2.30;;;2.10;;
3207;SDS011;1616;52.394;9.756;2023-03-01T11:49:18;2.27;;;2.17;;
3207;SDS011;1616;52.394;9.756;2023-03-01T11:54:58;2.10;;;1.90;;
3207;SDS011;1616;52.394;9.756;2023-03-01T12:00:20;3.00;;;2.20;;
3207;SDS011;1616;52.394;9.756;2023-03-01T12:08:41;2.03;;;1.83;;
3207;SDS011;1616;52.394;9.756;2023-03-01T12:14:33;2.23;;;2.00;;
3207;SDS011;1616;52.394;9.756;2023-03-01T12:22:36;2.20;;;2.00;;
3207;SDS011;1616;52.394;9.756;2023-03-01T12:30:35;2.47;;;2.27;;
3207;SDS011;1616;52.394;9.756;2023-03-01T12:38:43;3.13;;;2.30;;
3207;SDS011;1616;52.394;9.756;2023-03-01T12:46:52;2.50;;;2.30;;
3207;SDS011;1616;52.394;9.756;2023-03-01T12:49:41;2.57;;;2.43;;
3207;SDS011;1616;52.394;9.756;2023-03-01T12:55:38;2.87;;;2.67;;
3207;SDS011;1616;52.394;9.756;2023-03-01T12:58:11;3.90;;;2.80;;
3207;SDS011;1616;52.394;9.756;2023-03-01T13:12:46;2.40;;;2.27;;
3207;SDS011;1616;52.394;9.756;2023-03-01T13:17:47;4.80;;;3.53;;
3207;SDS011;1616;52.394;9.756;2023-03-01T13:20:21;3.43;;;3.13;;
3207;SDS011;1616;52.394;9.756;2023-03-01T13:23:03;3.53;;;3.23;;
3207;SDS011;1616;52.394;9.756;2023-03-01T13:31:02;3.53;;;3.33;;
3207;SDS011;1616;52.394;9.756;2023-03-01T13:35:57;3.20;;;3.00;;
3207;SDS011;1616;52.394;9.756;2023-03-01T13:41:11;3.33;;;3.13;;
3207;SDS011;1616;52.394;9.756;2023-03-01T13:43:40;3.90;;;3.50;;
3207;SDS011;1616;52.394;9.756;2023-03-01T13:46:20;3.00;;;2.80;;
3207;SDS011;1616;52.394;9.756;2023-03-01T13:48:48;3.40;;;3.10;;
3207;SDS011;1616;52.394;9.756;2023-03-01T13:51:20;4.77;;;2.70;;
3207;SDS011;1616;52.394;9.756;2023-03-01T13:53:51;3.37;;;3.17;;
3207;SDS011;1616;52.394;9.756;2023-03-01T13:56:26;3.53;;;3.33;;
3207;SDS011;1616;52.394;9.756;2023-03-01T13:59:13;2.77;;;2.57;;
3207;SDS011;1616;52.394;9.756;2023-03-01T14:01:42;3.77;;;2.43;;
3207;SDS011;1616;52.394;9.756;2023-03-01T14:06:52;3.33;;;3.00;;
3207;SDS011;1616;52.394;9.756;2023-03-01T14:09:39;2.50;;;2.27;;
3207;SDS011;1616;52.394;9.756;2023-03-01T14:17:21;2.13;;;1.93;;
3207;SDS011;1616;52.394;9.756;2023-03-01T14:20:12;2.00;;;1.80;;
3207;SDS011;1616;52.394;9.756;2023-03-01T14:22:42;2.60;;;2.40;;
3207;SDS011;1616;52.394;9.756;2023-03-01T14:28:12;3.20;;;2.90;;
3207;SDS011;1616;52.394;9.756;2023-03-01T14:30:44;2.40;;;2.20;;
3207;SDS011;1616;52.394;9.756;2023-03-01T14:35:51;3.93;;;2.20;;
3207;SDS011;1616;52.394;9.756;2023-03-01T14:38:22;4.10;;;1.90;;
3207;SDS011;1616;52.394;9.756;2023-03-01T14:40:54;1.60;;;1.50;;
3207;SDS011;1616;52.394;9.756;2023-03-01T14:43:26;3.20;;;1.70;;
3207;SDS011;1616;52.394;9.756;2023-03-01T14:45:54;2.13;;;1.70;;
3207;SDS011;1616;52.394;9.756;2023-03-01T14:48:20;5.43;;;1.87;;
3207;SDS011;1616;52.394;9.756;2023-03-01T14:50:46;3.00;;;1.90;;
3207;SDS011;1616;52.394;9.756;2023-03-01T14:53:17;1.90;;;1.53;;
3207;SDS011;1616;52.394;9.756;2023-03-01T14:55:47;1.73;;;1.60;;
3207;SDS011;1616;52.394;9.756;2023-03-01T14:58:19;3.43;;;1.70;;
3207;SDS011;1616;52.394;9.756;2023-03-01T15:00:49;2.00;;;1.73;;
3207;SDS011;1616;52.394;9.756;2023-03-01T15:03:41;1.50;;;1.40;;
3207;SDS011;1616;52.394;9.756;2023-03-01T15:06:08;5.00;;;2.67;;
3207;SDS011;1616;52.394;9.756;2023-03-01T15:08:35;2.10;;;1.80;;
3207;SDS011;1616;52.394;9.756;2023-03-01T15:11:44;2.63;;;1.73;;
3207;SDS011;1616;52.394;9.756;2023-03-01T15:13:55;2.47;;;2.10;;
3207;SDS011;1616;52.394;9.756;2023-03-01T15:16:30;2.37;;;2.00;;
3207;SDS011;1616;52.394;9.756;2023-03-01T15:19:02;3.03;;;2.00;;
3207;SDS011;1616;52.394;9.756;2023-03-01T15:24:22;2.37;;;2.17;;
3207;SDS011;1616;52.394;9.756;2023-03-01T15:26:52;2.30;;;1.97;;
3207;SDS011;1616;52.394;9.756;2023-03-01T15:29:24;3.17;;;2.40;;
3207;SDS011;1616;52.394;9.756;2023-03-01T15:32:05;3.87;;;1.80;;
3207;SDS011;1616;52.394;9.756;2023-03-01T15:34:47;6.17;;;2.00;;
3207;SDS011;1616;52.394;9.756;2023-03-01T15:40:00;2.53;;;2.33;;
3207;SDS011;1616;52.394;9.756;2023-03-01T15:47:54;2.30;;;2.10;;
3207;SDS011;1616;52.394;9.756;2023-03-01T15:50:27;3.80;;;2.00;;
3207;SDS011;1616;52.394;9.756;2023-03-01T15:52:58;1.80;;;1.70;;
3207;SDS011;1616;52.394;9.756;2023-03-01T15:55:27;2.87;;;2.20;;
3207;SDS011;1616;52.394;9.756;2023-03-01T15:58:05;2.10;;;1.87;;
3207;SDS011;1616;52.394;9.756;2023-03-01T16:00:35;4.13;;;2.70;;
3207;SDS011;1616;52.394;9.756;2023-03-01T16:03:01;8.07;;;2.00;;
3207;SDS011;1616;52.394;9.756;2023-03-01T16:05:31;2.17;;;1.90;;
3207;SDS011;1616;52.394;9.756;2023-03-01T16:07:59;2.63;;;1.80;;
3207;SDS011;1616;52.394;9.756;2023-03-01T16:10:25;2.33;;;1.67;;
3207;SDS011;1616;52.394;9.756;2023-03-01T16:12:52;2.23;;;1.60;;
3207;SDS011;1616;52.394;9.756;2023-03-01T16:17:55;3.20;;;2.03;;
3207;SDS011;1616;52.394;9.756;2023-03-01T16:20:23;2.30;;;2.00;;
3207;SDS011;1616;52.394;9.756;2023-03-01T16:22:49;6.43;;;2.60;;
3207;SDS011;1616;52.394;9.756;2023-03-01T16:25:16;2.10;;;1.87;;
3207;SDS011;1616;52.394;9.756;2023-03-01T16:27:43;2.47;;;2.27;;
3207;SDS011;1616;52.394;9.756;2023-03-01T16:30:10;3.87;;;2.23;;
3207;SDS011;1616;52.394;9.756;2023-03-01T16:32:40;2.00;;;1.80;;
3207;SDS011;1616;52.394;9.756;2023-03-01T16:35:09;2.00;;;1.77;;
3207;SDS011;1616;52.394;9.756;2023-03-01T16:37:36;2.23;;;2.00;;
3207;SDS011;1616;52.394;9.756;2023-03-01T16:40:06;4.40;;;2.10;;
3207;SDS011;1616;52.394;9.756;2023-03-01T16:42:40;2.40;;;2.17;;
3207;SDS011;1616;52.394;9.756;2023-03-01T16:45:07;3.10;;;2.60;;
3207;SDS011;1616;52.394;9.756;2023-03-01T16:47:34;2.87;;;2.10;;
3207;SDS011;1616;52.394;9.756;2023-03-01T16:49:59;7.93;;;2.90;;
3207;SDS011;1616;52.394;9.756;2023-03-01T16:52:25;2.30;;;2.10;;
3207;SDS011;1616;52.394;9.756;2023-03-01T16:54:51;2.60;;;2.30;;
3207;SDS011;1616;52.394;9.756;2023-03-01T16:57:17;2.20;;;2.00;;
3207;SDS011;1616;52.394;9.756;2023-03-01T16:59:43;1.67;;;1.57;;
3207;SDS011;1616;52.394;9.756;2023-03-01T17:02:09;3.63;;;2.50;;
3207;SDS011;1616;52.394;9.756;2023-03-01T17:04:38;1.90;;;1.70;;
3207;SDS011;1616;52.394;9.756;2023-03-01T17:07:04;2.60;;;2.40;;
3207;SDS011;1616;52.394;9.756;2023-03-01T17:09:30;4.03;;;2.23;;
3207;SDS011;1616;52.394;9.756;2023-03-01T17:12:00;1.90;;;1.70;;
3207;SDS011;1616;52.394;9.756;2023-03-01T17:14:25;1.77;;;1.47;;
3207;SDS011;1616;52.394;9.756;2023-03-01T17:16:51;4.50;;;1.77;;
3207;SDS011;1616;52.394;9.756;2023-03-01T17:19:17;5.43;;;2.00;;
3207;SDS011;1616;52.394;9.756;2023-03-01T17:21:44;3.23;;;1.97;;
3207;SDS011;1616;52.394;9.756;2023-03-01T17:24:10;4.57;;;2.00;;
3207;SDS011;1616;52.394;9.756;2023-03-01T17:26:36;6.93;;;2.00;;